createdAt,value
2023-03-17T00:01:44.800Z,11.80
2023-03-17T00:04:13.133Z,11.80
2023-03-17T00:06:41.402Z,11.80
2023-03-17T00:09:14.808Z,11.80
2023-03-17T00:11:42.576Z,11.80
2023-03-17T00:14:09.919Z,11.80
2023-03-17T00:16:42.990Z,11.80
2023-03-17T00:19:32.230Z,11.80
2023-03-17T00:22:00.954Z,11.80
2023-03-17T00:24:28.659Z,11.80
2023-03-17T00:26:55.583Z,11.80
2023-03-17T00:29:22.927Z,11.80
2023-03-17T00:31:50.843Z,11.80
2023-03-17T00:34:18.962Z,11.80
2023-03-17T00:36:49.758Z,11.80
2023-03-17T00:39:17.576Z,11.80
2023-03-17T00:41:44.995Z,11.80
2023-03-17T00:44:12.314Z,11.80
2023-03-17T00:46:41.612Z,11.80
2023-03-17T00:49:21.018Z,11.80
2023-03-17T00:51:49.720Z,11.80
2023-03-17T00:54:18.273Z,11.80
2023-03-17T00:56:46.123Z,11.80
2023-03-17T00:59:21.712Z,11.80
2023-03-17T01:01:49.404Z,11.80
2023-03-17T01:04:16.490Z,11.80
2023-03-17T01:06:43.500Z,11.80
2023-03-17T01:09:18.535Z,11.80
2023-03-17T01:11:46.002Z,11.80
2023-03-17T01:14:15.266Z,11.80
2023-03-17T01:16:42.442Z,11.80
2023-03-17T01:19:11.910Z,11.80
2023-03-17T01:21:39.260Z,11.80
2023-03-17T01:24:06.900Z,11.80
2023-03-17T01:26:33.895Z,11.80
2023-03-17T01:29:00.713Z,11.70
2023-03-17T01:31:27.614Z,11.70
2023-03-17T01:33:54.559Z,11.70
2023-03-17T01:36:22.442Z,11.70
2023-03-17T01:38:50.928Z,11.70
2023-03-17T01:41:21.012Z,11.70
2023-03-17T01:43:48.201Z,11.70
2023-03-17T01:46:24.830Z,11.60
2023-03-17T01:48:59.011Z,11.60
2023-03-17T01:51:51.746Z,11.60
2023-03-17T01:54:28.376Z,11.60
2023-03-17T01:57:01.126Z,11.60
2023-03-17T01:59:35.032Z,11.60
2023-03-17T02:02:08.003Z,11.50
2023-03-17T02:04:35.940Z,11.50
2023-03-17T02:07:05.108Z,11.50
2023-03-17T02:09:34.058Z,11.50
2023-03-17T02:12:02.746Z,11.40
2023-03-17T02:14:30.186Z,11.40
2023-03-17T02:16:57.566Z,11.40
2023-03-17T02:19:25.071Z,11.40
2023-03-17T02:21:58.061Z,11.40
2023-03-17T02:24:33.287Z,11.30
2023-03-17T02:27:06.342Z,11.30
2023-03-17T02:29:37.732Z,11.30
2023-03-17T02:32:05.855Z,11.30
2023-03-17T02:34:34.304Z,11.30
2023-03-17T02:37:01.217Z,11.20
2023-03-17T02:39:30.894Z,11.20
2023-03-17T02:41:58.178Z,11.20
2023-03-17T02:44:25.270Z,11.20
2023-03-17T02:46:54.236Z,11.20
2023-03-17T02:49:21.661Z,11.20
2023-03-17T02:51:48.680Z,11.20
2023-03-17T02:54:15.552Z,11.10
2023-03-17T02:56:42.482Z,11.10
2023-03-17T02:59:09.846Z,11.10
2023-03-17T03:01:36.916Z,11.10
2023-03-17T03:04:04.021Z,11.00
2023-03-17T03:10:45.158Z,11.00
2023-03-17T03:13:12.454Z,11.00
2023-03-17T03:15:42.354Z,10.90
2023-03-17T03:18:09.894Z,10.90
2023-03-17T03:20:36.714Z,10.90
2023-03-17T03:23:04.032Z,10.90
2023-03-17T03:25:30.829Z,10.80
2023-03-17T03:27:57.647Z,10.80
2023-03-17T03:30:24.612Z,10.80
2023-03-17T03:32:51.692Z,10.80
2023-03-17T03:35:18.713Z,10.70
2023-03-17T03:37:45.642Z,10.70
2023-03-17T03:40:12.923Z,10.70
2023-03-17T03:42:39.805Z,10.70
2023-03-17T03:45:07.034Z,10.70
2023-03-17T03:47:33.936Z,10.60
2023-03-17T03:50:01.527Z,10.60
2023-03-17T03:52:28.405Z,10.60
2023-03-17T03:54:55.211Z,10.60
2023-03-17T03:57:22.145Z,10.60
2023-03-17T03:59:49.089Z,10.60
2023-03-17T04:02:17.100Z,10.50
2023-03-17T04:04:44.831Z,10.50
2023-03-17T04:07:13.443Z,10.50
2023-03-17T04:09:40.441Z,10.50
2023-03-17T04:12:08.396Z,10.40
2023-03-17T04:14:35.364Z,10.40
2023-03-17T04:17:02.635Z,10.40
2023-03-17T04:19:29.458Z,10.40
2023-03-17T04:21:56.675Z,10.30
2023-03-17T04:24:23.470Z,10.40
2023-03-17T04:26:50.293Z,10.30
2023-03-17T04:29:17.099Z,10.30
2023-03-17T04:31:44.099Z,10.30
2023-03-17T04:34:16.238Z,10.30
2023-03-17T04:36:45.333Z,10.30
2023-03-17T04:39:12.756Z,10.20
2023-03-17T04:41:40.037Z,10.20
2023-03-17T04:44:08.058Z,10.20
2023-03-17T04:46:36.134Z,10.20
2023-03-17T04:49:02.979Z,10.20
2023-03-17T04:51:30.484Z,10.20
2023-03-17T04:53:57.355Z,10.10
2023-03-17T04:56:24.291Z,10.10
2023-03-17T04:58:51.149Z,10.10
2023-03-17T05:01:18.073Z,10.10
2023-03-17T05:03:45.465Z,10.00
2023-03-17T05:06:12.400Z,10.00
2023-03-17T05:08:39.231Z,10.00
2023-03-17T05:11:06.337Z,9.90
2023-03-17T05:13:33.149Z,9.90
2023-03-17T05:16:01.509Z,9.90
2023-03-17T05:18:28.455Z,9.90
2023-03-17T05:20:55.582Z,9.80
2023-03-17T05:23:23.148Z,9.80
2023-03-17T05:25:50.585Z,9.80
2023-03-17T05:28:18.234Z,9.70
2023-03-17T05:30:45.955Z,9.70
2023-03-17T05:33:12.807Z,9.70
2023-03-17T05:35:40.748Z,9.70
2023-03-17T05:38:08.817Z,9.70
2023-03-17T05:40:36.942Z,9.70
2023-03-17T05:43:05.379Z,9.70
2023-03-17T05:45:33.468Z,9.60
2023-03-17T05:48:00.348Z,9.60
2023-03-17T05:50:27.779Z,9.60
2023-03-17T05:52:54.668Z,9.60
2023-03-17T05:55:21.636Z,9.50
2023-03-17T05:57:48.437Z,9.50
2023-03-17T06:00:18.903Z,9.40
2023-03-17T06:02:46.032Z,9.40
2023-03-17T06:05:13.380Z,9.40
2023-03-17T06:07:52.889Z,9.40
2023-03-17T06:10:23.686Z,9.30
2023-03-17T06:12:50.556Z,9.30
2023-03-17T06:15:17.674Z,9.30
2023-03-17T06:17:44.701Z,9.30
2023-03-17T06:20:13.099Z,9.30
2023-03-17T06:22:51.678Z,9.30
2023-03-17T06:25:27.206Z,9.30
2023-03-17T06:27:56.132Z,9.20
2023-03-17T06:30:23.154Z,9.20
2023-03-17T06:32:50.450Z,9.20
2023-03-17T06:35:18.106Z,9.10
2023-03-17T06:37:45.072Z,9.10
2023-03-17T06:40:12.615Z,9.10
2023-03-17T06:42:39.591Z,9.10
2023-03-17T06:45:07.005Z,9.10
2023-03-17T06:47:35.427Z,9.10
2023-03-17T06:50:02.350Z,9.10
2023-03-17T06:52:29.301Z,9.10
2023-03-17T06:54:56.089Z,9.10
2023-03-17T06:57:22.960Z,9.10
2023-03-17T06:59:49.795Z,9.10
2023-03-17T07:02:16.820Z,9.10
2023-03-17T07:04:43.702Z,9.20
2023-03-17T07:07:10.908Z,9.20
2023-03-17T07:09:37.798Z,9.30
2023-03-17T07:12:05.130Z,9.30
2023-03-17T07:14:36.660Z,9.30
2023-03-17T07:17:05.150Z,9.40
2023-03-17T07:19:32.847Z,9.50
2023-03-17T07:21:59.691Z,9.50
2023-03-17T07:24:27.092Z,9.60
2023-03-17T07:26:53.993Z,9.70
2023-03-17T07:29:22.691Z,9.80
2023-03-17T07:31:50.294Z,9.90
2023-03-17T07:34:17.830Z,10.00
2023-03-17T07:36:44.813Z,10.10
2023-03-17T07:39:12.969Z,10.20
2023-03-17T07:41:39.914Z,10.30
2023-03-17T07:44:11.396Z,10.50
2023-03-17T07:46:39.101Z,10.60
2023-03-17T07:49:06.351Z,10.80
2023-03-17T07:51:33.265Z,11.00
2023-03-17T07:54:06.454Z,11.10
2023-03-17T07:56:33.609Z,11.30
2023-03-17T07:59:00.517Z,11.50
2023-03-17T08:01:28.471Z,11.60
2023-03-17T08:03:56.512Z,11.80
2023-03-17T08:06:25.472Z,12.00
2023-03-17T08:08:55.826Z,12.20
2023-03-17T08:11:23.452Z,12.40
2023-03-17T08:13:51.022Z,12.60
2023-03-17T08:16:17.961Z,12.80
2023-03-17T08:18:44.987Z,13.00
2023-03-17T08:21:14.072Z,13.10
2023-03-17T08:23:41.882Z,13.30
2023-03-17T08:26:08.967Z,13.50
2023-03-17T08:28:36.238Z,13.70
2023-03-17T08:31:13.756Z,13.90
2023-03-17T08:33:42.563Z,14.10
2023-03-17T08:36:11.325Z,14.30
2023-03-17T08:38:40.160Z,14.40
2023-03-17T08:41:10.363Z,14.50
2023-03-17T08:43:38.268Z,14.70
2023-03-17T08:46:08.741Z,14.80
2023-03-17T08:48:37.381Z,15.00
2023-03-17T08:51:05.713Z,15.10
2023-03-17T08:53:35.073Z,15.20
2023-03-17T08:56:03.686Z,15.30
2023-03-17T08:58:30.755Z,15.40
2023-03-17T09:01:01.545Z,15.50
2023-03-17T09:03:29.476Z,15.60
2023-03-17T09:05:56.876Z,15.70
2023-03-17T09:08:24.443Z,15.80
2023-03-17T09:10:52.037Z,15.90
2023-03-17T09:13:19.228Z,16.00
2023-03-17T09:15:46.194Z,16.20
2023-03-17T09:18:14.588Z,16.30
2023-03-17T09:20:41.637Z,16.50
2023-03-17T09:23:10.340Z,16.60
2023-03-17T09:25:38.699Z,16.80
2023-03-17T09:28:07.258Z,16.90
2023-03-17T09:30:34.116Z,17.10
2023-03-17T09:33:01.350Z,17.20
2023-03-17T09:35:29.546Z,17.30
2023-03-17T09:37:56.402Z,17.40
2023-03-17T09:41:07.889Z,17.50
2023-03-17T09:44:08.769Z,17.50
2023-03-17T09:46:50.676Z,17.50
2023-03-17T09:49:45.528Z,17.50
2023-03-17T09:52:18.620Z,17.50
2023-03-17T09:54:46.658Z,17.50
2023-03-17T09:57:21.331Z,17.40
2023-03-17T10:00:01.383Z,17.40
2023-03-17T10:02:34.325Z,17.30
2023-03-17T10:05:13.206Z,17.30
2023-03-17T10:08:26.944Z,17.20
2023-03-17T10:11:26.413Z,17.20
2023-03-17T10:14:17.106Z,17.20
2023-03-17T10:17:00.496Z,17.20
2023-03-17T10:19:41.712Z,17.30
2023-03-17T10:22:19.425Z,17.30
2023-03-17T10:24:52.906Z,17.40
2023-03-17T10:27:20.459Z,17.40
2023-03-17T10:29:48.642Z,17.50
2023-03-17T10:32:16.158Z,17.50
2023-03-17T10:34:43.782Z,17.60
2023-03-17T10:37:23.693Z,17.70
2023-03-17T10:39:56.372Z,17.80
2023-03-17T10:42:26.970Z,17.90
2023-03-17T10:44:55.062Z,17.90
2023-03-17T10:47:31.712Z,18.00
2023-03-17T10:50:17.196Z,18.10
2023-03-17T10:52:47.449Z,18.20
2023-03-17T10:55:21.349Z,18.30
2023-03-17T10:57:55.253Z,18.50
2023-03-17T11:00:23.212Z,18.60
2023-03-17T11:03:02.891Z,18.70
2023-03-17T11:05:30.148Z,18.90
2023-03-17T11:07:58.732Z,19.00
2023-03-17T11:10:29.209Z,19.10
2023-03-17T11:13:02.852Z,19.20
2023-03-17T11:15:42.351Z,19.20
2023-03-17T11:18:32.075Z,19.20
2023-03-17T11:21:01.675Z,19.30
2023-03-17T11:23:51.222Z,19.30
2023-03-17T11:26:51.388Z,19.20
2023-03-17T11:29:23.909Z,19.10
2023-03-17T11:32:15.378Z,19.10
2023-03-17T11:34:53.665Z,19.10
2023-03-17T11:37:29.625Z,19.00
2023-03-17T11:40:21.679Z,18.90
2023-03-17T11:43:26.263Z,18.90
2023-03-17T11:46:04.812Z,18.90
2023-03-17T11:48:57.553Z,18.80
2023-03-17T11:51:46.461Z,18.80
2023-03-17T11:54:47.055Z,18.80
2023-03-17T11:57:40.214Z,18.80
2023-03-17T12:00:16.204Z,18.70
2023-03-17T12:02:59.699Z,18.70
2023-03-17T12:05:28.348Z,18.70
2023-03-17T12:08:04.983Z,18.70
2023-03-17T12:10:37.737Z,18.60
2023-03-17T12:13:12.745Z,18.60
2023-03-17T12:16:25.650Z,18.60
2023-03-17T12:19:13.287Z,18.60
2023-03-17T12:21:58.255Z,18.60
2023-03-17T12:25:04.668Z,18.60
2023-03-17T12:27:44.224Z,18.60
2023-03-17T12:30:38.707Z,18.70
2023-03-17T12:33:24.728Z,18.60
2023-03-17T12:35:52.152Z,18.60
2023-03-17T12:38:39.866Z,18.60
2023-03-17T12:41:41.575Z,18.60
2023-03-17T12:44:30.442Z,18.60
2023-03-17T12:47:28.068Z,18.70
2023-03-17T12:50:16.940Z,18.70
2023-03-17T12:52:53.889Z,18.70
2023-03-17T12:55:25.373Z,18.70
2023-03-17T12:58:03.430Z,18.70
2023-03-17T13:00:33.355Z,18.70
2023-03-17T13:03:30.663Z,18.70
2023-03-17T13:06:03.662Z,18.70
2023-03-17T13:08:34.051Z,18.70
2023-03-17T13:11:36.769Z,18.70
2023-03-17T13:14:26.117Z,18.70
2023-03-17T13:17:28.428Z,18.80
2023-03-17T13:20:04.282Z,18.80
2023-03-17T13:23:10.324Z,18.80
2023-03-17T13:25:41.808Z,18.80
2023-03-17T13:28:15.153Z,18.80
2023-03-17T13:30:54.076Z,18.80
2023-03-17T13:33:25.849Z,18.80
2023-03-17T13:36:11.554Z,18.80
2023-03-17T13:38:52.545Z,18.90
2023-03-17T13:41:45.466Z,18.90
2023-03-17T13:44:44.653Z,18.90
2023-03-17T13:47:23.661Z,18.90
2023-03-17T13:49:54.042Z,18.90
2023-03-17T13:52:32.975Z,18.90
2023-03-17T13:55:25.663Z,18.90
2023-03-17T13:58:17.194Z,18.90
2023-03-17T14:00:47.617Z,18.90
2023-03-17T14:03:27.450Z,19.00
2023-03-17T14:05:55.259Z,19.00
2023-03-17T14:08:37.282Z,19.00
2023-03-17T14:11:16.327Z,19.00
2023-03-17T14:14:07.968Z,19.00
2023-03-17T14:16:46.172Z,19.00
2023-03-17T14:19:28.072Z,19.00
2023-03-17T14:21:55.655Z,19.00
2023-03-17T14:24:30.642Z,19.00
2023-03-17T14:26:57.584Z,19.00
2023-03-17T14:29:31.705Z,19.10
2023-03-17T14:32:13.077Z,19.10
2023-03-17T14:34:55.569Z,19.10
2023-03-17T14:37:23.358Z,19.10
2023-03-17T14:39:56.262Z,19.10
2023-03-17T14:42:31.198Z,19.10
2023-03-17T14:45:08.882Z,19.10
2023-03-17T14:47:43.429Z,19.10
2023-03-17T14:50:29.668Z,19.10
2023-03-17T14:52:59.176Z,19.10
2023-03-17T14:55:37.248Z,19.10
2023-03-17T14:58:20.933Z,19.10
2023-03-17T15:01:02.374Z,19.10
2023-03-17T15:03:31.604Z,19.10
2023-03-17T15:06:27.358Z,19.10
2023-03-17T15:08:57.382Z,19.20
2023-03-17T15:11:43.995Z,19.10
2023-03-17T15:14:21.890Z,19.10
2023-03-17T15:16:52.641Z,19.10
2023-03-17T15:19:29.075Z,19.10
2023-03-17T15:21:59.834Z,19.10
2023-03-17T15:24:39.499Z,19.20
2023-03-17T15:27:15.310Z,19.10
2023-03-17T15:29:42.237Z,19.10
2023-03-17T15:32:23.456Z,19.10
2023-03-17T15:34:53.744Z,19.10
2023-03-17T15:37:28.427Z,19.10
2023-03-17T15:39:56.386Z,19.10
2023-03-17T15:42:26.862Z,19.10
2023-03-17T15:44:54.810Z,19.10
2023-03-17T15:47:25.149Z,19.10
2023-03-17T15:49:52.264Z,19.00
2023-03-17T15:52:22.991Z,19.00
2023-03-17T15:54:50.266Z,19.00
2023-03-17T15:57:17.356Z,19.10
2023-03-17T15:59:44.362Z,19.00
2023-03-17T16:02:31.963Z,19.00
2023-03-17T16:05:07.361Z,19.00
2023-03-17T16:07:34.222Z,19.00
2023-03-17T16:10:01.392Z,19.00
2023-03-17T16:12:28.200Z,19.00
2023-03-17T16:14:55.016Z,19.00
2023-03-17T16:17:29.115Z,19.00
2023-03-17T16:19:59.873Z,19.00
2023-03-17T16:22:42.722Z,19.00
2023-03-17T16:25:29.381Z,19.00
2023-03-17T16:27:59.278Z,19.00
2023-03-17T16:30:32.524Z,19.00
2023-03-17T16:33:09.223Z,19.00
2023-03-17T16:35:36.212Z,18.90
2023-03-17T16:38:03.279Z,19.00
2023-03-17T16:40:35.398Z,18.90
2023-03-17T16:43:15.740Z,18.90
2023-03-17T16:45:46.144Z,19.00
2023-03-17T16:48:14.848Z,18.90
2023-03-17T16:50:44.060Z,18.90
2023-03-17T16:53:11.005Z,18.90
2023-03-17T16:55:39.565Z,18.90
2023-03-17T16:58:16.065Z,18.90
2023-03-17T17:00:43.322Z,18.90
2023-03-17T17:03:10.224Z,18.90
2023-03-17T17:05:37.169Z,18.90
2023-03-17T17:08:04.694Z,18.90
2023-03-17T17:10:33.896Z,18.90
2023-03-17T17:13:02.190Z,18.90
2023-03-17T17:15:30.779Z,18.90
2023-03-17T17:18:01.980Z,18.90
2023-03-17T17:20:33.185Z,18.80
2023-03-17T17:23:02.123Z,18.90
2023-03-17T17:25:29.972Z,18.80
2023-03-17T17:27:58.058Z,18.80
2023-03-17T17:30:28.290Z,18.80
2023-03-17T17:32:57.673Z,18.80
2023-03-17T17:35:26.990Z,18.70
2023-03-17T17:37:54.301Z,18.70
2023-03-17T17:40:24.538Z,18.70
2023-03-17T17:42:52.471Z,18.70
2023-03-17T17:45:20.280Z,18.60
2023-03-17T17:47:47.851Z,18.60
2023-03-17T17:50:24.077Z,18.60
2023-03-17T17:52:50.931Z,18.60
2023-03-17T17:55:18.415Z,18.50
2023-03-17T17:57:45.324Z,18.50
2023-03-17T18:00:17.150Z,18.50
2023-03-17T18:02:44.955Z,18.40
2023-03-17T18:05:12.771Z,18.50
2023-03-17T18:07:40.643Z,18.40
2023-03-17T18:10:07.924Z,18.40
2023-03-17T18:12:34.717Z,18.30
2023-03-17T18:15:01.551Z,18.30
2023-03-17T18:17:30.623Z,18.30
2023-03-17T18:19:58.809Z,18.20
2023-03-17T18:22:25.680Z,18.20
2023-03-17T18:24:52.605Z,18.20
2023-03-17T18:27:19.431Z,18.10
2023-03-17T18:29:47.310Z,18.10
2023-03-17T18:32:14.637Z,18.10
2023-03-17T18:34:45.394Z,18.00
2023-03-17T18:37:14.648Z,18.00
2023-03-17T18:39:42.752Z,18.00
2023-03-17T18:42:10.212Z,18.00
2023-03-17T18:44:37.905Z,17.90
2023-03-17T18:47:05.070Z,17.90
2023-03-17T18:49:32.239Z,17.90
2023-03-17T18:51:59.792Z,17.80
2023-03-17T18:54:28.420Z,17.80
2023-03-17T18:56:56.518Z,17.80
2023-03-17T18:59:23.612Z,17.70
2023-03-17T19:01:51.400Z,17.70
2023-03-17T19:04:18.639Z,17.70
2023-03-17T19:06:45.641Z,17.70
2023-03-17T19:09:13.088Z,17.60
2023-03-17T19:11:41.280Z,17.60
2023-03-17T19:14:09.054Z,17.60
2023-03-17T19:16:36.171Z,17.60
2023-03-17T19:19:03.484Z,17.50
2023-03-17T19:21:31.112Z,17.50
2023-03-17T19:24:01.509Z,17.50
2023-03-17T19:26:30.450Z,17.40
2023-03-17T19:28:57.720Z,17.40
2023-03-17T19:31:25.285Z,17.40
2023-03-17T19:33:52.528Z,17.30
2023-03-17T19:36:19.865Z,17.30
2023-03-17T19:38:46.679Z,17.30
2023-03-17T19:41:15.426Z,17.30
2023-03-17T19:43:42.679Z,17.20
2023-03-17T19:46:11.998Z,17.20
2023-03-17T19:48:40.050Z,17.20
2023-03-17T19:51:08.110Z,17.20
2023-03-17T19:53:35.689Z,17.20
2023-03-17T19:56:03.112Z,17.10
2023-03-17T19:58:30.338Z,17.10
2023-03-17T20:00:57.263Z,17.10
2023-03-17T20:03:26.179Z,17.00
2023-03-17T20:05:53.653Z,17.00
2023-03-17T20:08:22.378Z,17.00
2023-03-17T20:10:55.441Z,17.00
2023-03-17T20:13:22.799Z,17.00
2023-03-17T20:15:51.736Z,17.00
2023-03-17T20:18:19.166Z,16.90
2023-03-17T20:20:49.738Z,16.90
2023-03-17T20:23:17.452Z,16.90
2023-03-17T20:25:44.786Z,16.90
2023-03-17T20:28:13.059Z,16.90
2023-03-17T20:30:40.463Z,16.90
2023-03-17T20:33:08.408Z,16.90
2023-03-17T20:35:35.438Z,16.80
2023-03-17T20:38:02.758Z,16.80
2023-03-17T20:40:29.912Z,16.80
2023-03-17T20:42:57.161Z,16.80
2023-03-17T20:45:24.446Z,16.80
2023-03-17T20:47:51.364Z,16.80
2023-03-17T20:50:18.246Z,16.70
2023-03-17T20:52:45.218Z,16.70
2023-03-17T20:55:14.871Z,16.70
2023-03-17T20:57:45.314Z,16.70
2023-03-17T21:00:17.827Z,16.70
2023-03-17T21:02:48.431Z,16.70
2023-03-17T21:05:17.958Z,16.70
2023-03-17T21:07:44.812Z,16.60
2023-03-17T21:10:12.114Z,16.60
2023-03-17T21:12:39.005Z,16.60
2023-03-17T21:15:07.856Z,16.60
2023-03-17T21:17:34.690Z,16.60
2023-03-17T21:20:01.882Z,16.60
2023-03-17T21:22:29.997Z,16.60
2023-03-17T21:24:56.795Z,16.60
2023-03-17T21:27:23.642Z,16.60
2023-03-17T21:29:51.234Z,16.60
2023-03-17T21:32:18.110Z,16.60
2023-03-17T21:34:45.367Z,16.50
2023-03-17T21:37:12.209Z,16.60
2023-03-17T21:39:39.188Z,16.50
2023-03-17T21:42:08.696Z,16.50
2023-03-17T21:44:35.802Z,16.50
2023-03-17T21:47:03.028Z,16.50
2023-03-17T21:49:29.925Z,16.50
2023-03-17T21:51:57.614Z,16.40
2023-03-17T21:54:25.614Z,16.40
2023-03-17T21:56:52.856Z,16.40
2023-03-17T21:59:20.988Z,16.40
2023-03-17T22:01:51.966Z,16.40
2023-03-17T22:04:19.004Z,16.40
2023-03-17T22:06:45.880Z,16.40
2023-03-17T22:09:16.459Z,16.40
2023-03-17T22:11:44.363Z,16.40
2023-03-17T22:14:13.286Z,16.40
2023-03-17T22:16:40.209Z,16.30
2023-03-17T22:19:07.119Z,16.30
2023-03-17T22:21:33.930Z,16.30
2023-03-17T22:24:00.733Z,16.20
2023-03-17T22:26:28.537Z,16.30
2023-03-17T22:28:55.373Z,16.20
2023-03-17T22:31:24.778Z,16.10
2023-03-17T22:33:55.033Z,16.20
2023-03-17T22:36:22.973Z,16.10
2023-03-17T22:38:50.174Z,16.10
2023-03-17T22:41:19.846Z,16.10
2023-03-17T22:43:47.183Z,16.10
2023-03-17T22:46:14.867Z,16.10
2023-03-17T22:48:41.886Z,16.10
2023-03-17T22:51:11.260Z,16.10
2023-03-17T22:53:39.142Z,16.10
2023-03-17T22:56:06.773Z,16.10
2023-03-17T22:58:33.973Z,16.10
2023-03-17T23:01:01.200Z,16.10
2023-03-17T23:03:29.263Z,16.10
2023-03-17T23:05:59.628Z,16.10
2023-03-17T23:08:29.356Z,16.10
2023-03-17T23:10:57.328Z,16.10
2023-03-17T23:13:24.268Z,16.10
2023-03-17T23:15:51.673Z,16.10
2023-03-17T23:18:18.938Z,16.10
2023-03-17T23:20:46.494Z,16.10
2023-03-17T23:23:13.696Z,16.10
2023-03-17T23:25:41.160Z,16.10
2023-03-17T23:28:09.346Z,16.10
2023-03-17T23:30:37.398Z,16.10
2023-03-17T23:33:05.139Z,16.10
2023-03-17T23:35:32.240Z,16.00
2023-03-17T23:37:59.437Z,16.00
2023-03-17T23:40:26.372Z,16.00
2023-03-17T23:42:55.096Z,16.00
2023-03-17T23:45:23.301Z,16.00
2023-03-17T23:47:52.090Z,15.90
2023-03-17T23:50:19.936Z,15.90
2023-03-17T23:52:48.066Z,16.00
2023-03-17T23:55:16.787Z,15.90
2023-03-17T23:57:44.276Z,15.90
